Terminal Aerodrome Forecast
Issued by NWS North Platte, NE

Home | Current Version | Previous Version | Graphics & Text | Print | Product List | Glossary On
Versions: 1 2 3 4 5 6 7 8 9 10 11 12 13 14
940
FTUS43 KLBF 211502 AAB
TAFVTN
TAF AMD
KVTN 211502Z 2115/2212 13004KT P6SM BKN004 OVC040
     FM211600 06005KT P6SM BKN012
      TEMPO 2116/2118 3SM -TSRA BKN012CB OVC030
     FM211800 07003KT P6SM SCT007 OVC050
     FM220000 36010KT P6SM OVC050=

USA.gov is the U.S. government's official web portal to all federal, state and local government web resources and services.